sensor_id;sensor_type;location;lat;lon;timestamp;temperature;humidity
67942;SHT31;54731;42.600;23.476;2023-09-30T00:01:43;16.14;56.45
67942;SHT31;54731;42.600;23.476;2023-09-30T00:04:09;16.07;56.35
67942;SHT31;54731;42.600;23.476;2023-09-30T00:06:34;16.10;55.96
67942;SHT31;54731;42.600;23.476;2023-09-30T00:08:59;16.10;55.41
67942;SHT31;54731;42.600;23.476;2023-09-30T00:11:24;16.05;55.66
67942;SHT31;54731;42.600;23.476;2023-09-30T00:13:50;16.07;55.96
67942;SHT31;54731;42.600;23.476;2023-09-30T00:16:15;16.12;55.53
67942;SHT31;54731;42.600;23.476;2023-09-30T00:18:40;16.11;55.96
67942;SHT31;54731;42.600;23.476;2023-09-30T00:21:06;16.10;56.81
67942;SHT31;54731;42.600;23.476;2023-09-30T00:23:31;16.11;56.07
67942;SHT31;54731;42.600;23.476;2023-09-30T00:25:56;16.10;56.28
67942;SHT31;54731;42.600;23.476;2023-09-30T00:28:22;16.05;56.01
67942;SHT31;54731;42.600;23.476;2023-09-30T00:30:47;16.07;56.02
67942;SHT31;54731;42.600;23.476;2023-09-30T00:33:13;16.10;55.88
67942;SHT31;54731;42.600;23.476;2023-09-30T00:35:38;16.14;56.06
67942;SHT31;54731;42.600;23.476;2023-09-30T00:38:03;16.11;56.24
67942;SHT31;54731;42.600;23.476;2023-09-30T00:40:28;16.14;55.50
67942;SHT31;54731;42.600;23.476;2023-09-30T00:42:54;16.15;55.67
67942;SHT31;54731;42.600;23.476;2023-09-30T00:45:19;16.15;56.18
67942;SHT31;54731;42.600;23.476;2023-09-30T00:47:44;16.17;56.14
67942;SHT31;54731;42.600;23.476;2023-09-30T00:50:10;16.17;55.61
67942;SHT31;54731;42.600;23.476;2023-09-30T00:52:36;16.17;56.01
67942;SHT31;54731;42.600;23.476;2023-09-30T00:55:01;16.18;56.44
67942;SHT31;54731;42.600;23.476;2023-09-30T00:57:27;16.15;55.77
67942;SHT31;54731;42.600;23.476;2023-09-30T00:59:52;16.12;56.52
67942;SHT31;54731;42.600;23.476;2023-09-30T01:02:18;16.10;57.36
67942;SHT31;54731;42.600;23.476;2023-09-30T01:04:44;16.08;58.13
67942;SHT31;54731;42.600;23.476;2023-09-30T01:07:09;16.14;57.01
67942;SHT31;54731;42.600;23.476;2023-09-30T01:09:34;16.12;57.52
67942;SHT31;54731;42.600;23.476;2023-09-30T01:12:00;16.08;57.76
67942;SHT31;54731;42.600;23.476;2023-09-30T01:16:55;16.07;58.91
67942;SHT31;54731;42.600;23.476;2023-09-30T01:19:20;16.11;57.87
67942;SHT31;54731;42.600;23.476;2023-09-30T01:21:46;16.12;57.38
67942;SHT31;54731;42.600;23.476;2023-09-30T01:24:11;16.08;57.52
67942;SHT31;54731;42.600;23.476;2023-09-30T01:26:36;16.10;57.81
67942;SHT31;54731;42.600;23.476;2023-09-30T01:29:02;16.15;57.25
67942;SHT31;54731;42.600;23.476;2023-09-30T01:31:27;16.17;56.90
67942;SHT31;54731;42.600;23.476;2023-09-30T01:33:52;16.12;57.78
67942;SHT31;54731;42.600;23.476;2023-09-30T01:36:18;16.11;57.65
67942;SHT31;54731;42.600;23.476;2023-09-30T01:38:43;16.10;58.48
67942;SHT31;54731;42.600;23.476;2023-09-30T01:41:08;16.12;57.88
67942;SHT31;54731;42.600;23.476;2023-09-30T01:43:33;16.18;57.74
67942;SHT31;54731;42.600;23.476;2023-09-30T01:45:59;16.17;57.22
67942;SHT31;54731;42.600;23.476;2023-09-30T01:48:24;16.17;57.19
67942;SHT31;54731;42.600;23.476;2023-09-30T01:50:49;16.18;57.51
67942;SHT31;54731;42.600;23.476;2023-09-30T01:53:15;16.18;57.04
67942;SHT31;54731;42.600;23.476;2023-09-30T01:55:40;16.20;56.62
67942;SHT31;54731;42.600;23.476;2023-09-30T01:58:05;16.25;56.14
67942;SHT31;54731;42.600;23.476;2023-09-30T02:00:31;16.25;56.50
67942;SHT31;54731;42.600;23.476;2023-09-30T02:02:56;16.28;56.17
67942;SHT31;54731;42.600;23.476;2023-09-30T02:05:23;16.31;55.59
67942;SHT31;54731;42.600;23.476;2023-09-30T02:07:48;16.31;55.18
67942;SHT31;54731;42.600;23.476;2023-09-30T02:10:14;16.38;54.61
67942;SHT31;54731;42.600;23.476;2023-09-30T02:12:39;16.35;54.41
67942;SHT31;54731;42.600;23.476;2023-09-30T02:15:05;16.41;54.34
67942;SHT31;54731;42.600;23.476;2023-09-30T02:17:30;16.41;54.63
67942;SHT31;54731;42.600;23.476;2023-09-30T02:19:56;16.41;54.63
67942;SHT31;54731;42.600;23.476;2023-09-30T02:22:21;16.42;54.28
67942;SHT31;54731;42.600;23.476;2023-09-30T02:24:46;16.41;54.22
67942;SHT31;54731;42.600;23.476;2023-09-30T02:27:12;16.40;54.25
67942;SHT31;54731;42.600;23.476;2023-09-30T02:29:37;16.40;54.13
67942;SHT31;54731;42.600;23.476;2023-09-30T02:32:02;16.36;54.20
67942;SHT31;54731;42.600;23.476;2023-09-30T02:34:30;16.21;54.55
67942;SHT31;54731;42.600;23.476;2023-09-30T02:36:55;16.17;54.53
67942;SHT31;54731;42.600;23.476;2023-09-30T02:39:21;16.10;54.55
67942;SHT31;54731;42.600;23.476;2023-09-30T02:41:46;16.07;54.49
67942;SHT31;54731;42.600;23.476;2023-09-30T02:44:11;15.94;54.84
67942;SHT31;54731;42.600;23.476;2023-09-30T02:46:36;15.89;55.14
67942;SHT31;54731;42.600;23.476;2023-09-30T02:49:02;15.89;55.00
67942;SHT31;54731;42.600;23.476;2023-09-30T02:51:27;15.89;55.16
67942;SHT31;54731;42.600;23.476;2023-09-30T02:53:52;15.86;55.01
67942;SHT31;54731;42.600;23.476;2023-09-30T02:56:18;15.81;55.23
67942;SHT31;54731;42.600;23.476;2023-09-30T02:58:43;15.80;55.28
67942;SHT31;54731;42.600;23.476;2023-09-30T03:01:08;15.76;55.35
67942;SHT31;54731;42.600;23.476;2023-09-30T03:03:34;15.73;56.02
67942;SHT31;54731;42.600;23.476;2023-09-30T03:05:59;15.77;56.16
67942;SHT31;54731;42.600;23.476;2023-09-30T03:08:24;15.76;55.97
67942;SHT31;54731;42.600;23.476;2023-09-30T03:10:50;15.76;55.88
67942;SHT31;54731;42.600;23.476;2023-09-30T03:13:15;15.77;55.73
67942;SHT31;54731;42.600;23.476;2023-09-30T03:15:40;15.79;55.47
67942;SHT31;54731;42.600;23.476;2023-09-30T03:18:06;15.77;55.39
67942;SHT31;54731;42.600;23.476;2023-09-30T03:20:31;15.79;55.61
67942;SHT31;54731;42.600;23.476;2023-09-30T03:22:57;15.74;55.48
67942;SHT31;54731;42.600;23.476;2023-09-30T03:25:22;15.76;55.44
67942;SHT31;54731;42.600;23.476;2023-09-30T03:27:48;15.73;55.91
67942;SHT31;54731;42.600;23.476;2023-09-30T03:30:17;15.71;55.68
67942;SHT31;54731;42.600;23.476;2023-09-30T03:32:43;15.71;56.06
67942;SHT31;54731;42.600;23.476;2023-09-30T03:35:09;15.71;56.02
67942;SHT31;54731;42.600;23.476;2023-09-30T03:37:35;15.71;55.72
67942;SHT31;54731;42.600;23.476;2023-09-30T03:40:00;15.69;55.76
67942;SHT31;54731;42.600;23.476;2023-09-30T03:42:25;15.66;55.92
67942;SHT31;54731;42.600;23.476;2023-09-30T03:44:51;15.67;55.92
67942;SHT31;54731;42.600;23.476;2023-09-30T03:47:16;15.66;55.74
67942;SHT31;54731;42.600;23.476;2023-09-30T03:49:42;15.66;55.85
67942;SHT31;54731;42.600;23.476;2023-09-30T03:52:08;15.60;56.61
67942;SHT31;54731;42.600;23.476;2023-09-30T03:54:34;15.60;58.09
67942;SHT31;54731;42.600;23.476;2023-09-30T03:56:59;15.49;58.83
67942;SHT31;54731;42.600;23.476;2023-09-30T03:59:25;15.53;58.83
67942;SHT31;54731;42.600;23.476;2023-09-30T04:01:50;15.44;59.23
67942;SHT31;54731;42.600;23.476;2023-09-30T04:04:15;15.49;57.47
67942;SHT31;54731;42.600;23.476;2023-09-30T04:06:41;15.46;57.28
67942;SHT31;54731;42.600;23.476;2023-09-30T04:09:06;15.46;56.85
67942;SHT31;54731;42.600;23.476;2023-09-30T04:11:31;15.47;56.38
67942;SHT31;54731;42.600;23.476;2023-09-30T04:13:56;15.46;56.41
67942;SHT31;54731;42.600;23.476;2023-09-30T04:16:22;15.46;56.17
67942;SHT31;54731;42.600;23.476;2023-09-30T04:18:47;15.37;56.29
67942;SHT31;54731;42.600;23.476;2023-09-30T04:21:12;15.36;56.69
67942;SHT31;54731;42.600;23.476;2023-09-30T04:23:38;15.35;57.55
67942;SHT31;54731;42.600;23.476;2023-09-30T04:26:03;15.26;57.24
67942;SHT31;54731;42.600;23.476;2023-09-30T04:28:28;15.22;57.33
67942;SHT31;54731;42.600;23.476;2023-09-30T04:30:54;15.19;57.18
67942;SHT31;54731;42.600;23.476;2023-09-30T04:33:19;15.12;57.25
67942;SHT31;54731;42.600;23.476;2023-09-30T04:35:44;15.19;57.06
67942;SHT31;54731;42.600;23.476;2023-09-30T04:38:10;15.16;57.06
67942;SHT31;54731;42.600;23.476;2023-09-30T04:40:35;15.13;57.11
67942;SHT31;54731;42.600;23.476;2023-09-30T04:43:00;15.15;56.87
67942;SHT31;54731;42.600;23.476;2023-09-30T04:45:26;15.13;57.15
67942;SHT31;54731;42.600;23.476;2023-09-30T04:47:55;15.02;60.14
67942;SHT31;54731;42.600;23.476;2023-09-30T04:50:20;14.98;60.42
67942;SHT31;54731;42.600;23.476;2023-09-30T04:52:45;14.98;59.68
67942;SHT31;54731;42.600;23.476;2023-09-30T04:55:10;14.92;60.28
67942;SHT31;54731;42.600;23.476;2023-09-30T04:57:36;14.88;60.78
67942;SHT31;54731;42.600;23.476;2023-09-30T05:00:01;14.89;61.01
67942;SHT31;54731;42.600;23.476;2023-09-30T05:02:27;14.88;60.13
67942;SHT31;54731;42.600;23.476;2023-09-30T05:04:52;14.82;60.70
67942;SHT31;54731;42.600;23.476;2023-09-30T05:07:20;14.85;60.82
67942;SHT31;54731;42.600;23.476;2023-09-30T05:09:45;14.86;61.95
67942;SHT31;54731;42.600;23.476;2023-09-30T05:12:11;14.89;62.22
67942;SHT31;54731;42.600;23.476;2023-09-30T05:14:36;14.91;61.27
67942;SHT31;54731;42.600;23.476;2023-09-30T05:17:02;14.89;60.69
67942;SHT31;54731;42.600;23.476;2023-09-30T05:19:27;14.95;60.42
67942;SHT31;54731;42.600;23.476;2023-09-30T05:21:52;14.96;59.89
67942;SHT31;54731;42.600;23.476;2023-09-30T05:24:17;15.02;59.39
67942;SHT31;54731;42.600;23.476;2023-09-30T05:26:43;15.10;58.62
67942;SHT31;54731;42.600;23.476;2023-09-30T05:29:08;15.12;60.43
67942;SHT31;54731;42.600;23.476;2023-09-30T05:31:33;15.12;61.64
67942;SHT31;54731;42.600;23.476;2023-09-30T05:33:59;15.15;63.23
67942;SHT31;54731;42.600;23.476;2023-09-30T05:36:24;15.19;62.42
67942;SHT31;54731;42.600;23.476;2023-09-30T05:38:49;15.20;63.13
67942;SHT31;54731;42.600;23.476;2023-09-30T05:41:14;15.29;64.25
67942;SHT31;54731;42.600;23.476;2023-09-30T05:43:40;15.26;63.14
67942;SHT31;54731;42.600;23.476;2023-09-30T05:46:06;15.27;63.42
67942;SHT31;54731;42.600;23.476;2023-09-30T05:48:31;15.27;64.34
67942;SHT31;54731;42.600;23.476;2023-09-30T05:50:57;15.33;64.28
67942;SHT31;54731;42.600;23.476;2023-09-30T05:53:22;15.37;64.93
67942;SHT31;54731;42.600;23.476;2023-09-30T05:55:48;15.46;64.98
67942;SHT31;54731;42.600;23.476;2023-09-30T05:58:14;15.44;63.90
67942;SHT31;54731;42.600;23.476;2023-09-30T06:00:40;15.49;64.35
67942;SHT31;54731;42.600;23.476;2023-09-30T06:03:05;15.53;65.16
67942;SHT31;54731;42.600;23.476;2023-09-30T06:05:31;15.44;63.70
67942;SHT31;54731;42.600;23.476;2023-09-30T06:07:57;15.40;63.59
67942;SHT31;54731;42.600;23.476;2023-09-30T06:10:22;15.33;63.56
67942;SHT31;54731;42.600;23.476;2023-09-30T06:12:50;15.35;63.80
67942;SHT31;54731;42.600;23.476;2023-09-30T06:15:16;15.25;64.12
67942;SHT31;54731;42.600;23.476;2023-09-30T06:17:41;15.27;64.28
67942;SHT31;54731;42.600;23.476;2023-09-30T06:20:07;15.27;64.38
67942;SHT31;54731;42.600;23.476;2023-09-30T06:22:33;15.25;64.57
67942;SHT31;54731;42.600;23.476;2023-09-30T06:24:58;15.19;64.64
67942;SHT31;54731;42.600;23.476;2023-09-30T06:27:23;15.18;65.14
67942;SHT31;54731;42.600;23.476;2023-09-30T06:29:48;15.18;65.01
67942;SHT31;54731;42.600;23.476;2023-09-30T06:32:14;15.20;65.65
67942;SHT31;54731;42.600;23.476;2023-09-30T06:34:39;15.26;65.17
67942;SHT31;54731;42.600;23.476;2023-09-30T06:37:04;15.27;65.28
67942;SHT31;54731;42.600;23.476;2023-09-30T06:39:30;15.30;64.92
67942;SHT31;54731;42.600;23.476;2023-09-30T06:41:55;15.27;64.90
67942;SHT31;54731;42.600;23.476;2023-09-30T06:44:20;15.30;65.01
67942;SHT31;54731;42.600;23.476;2023-09-30T06:46:45;15.37;65.70
67942;SHT31;54731;42.600;23.476;2023-09-30T06:49:11;15.49;63.93
67942;SHT31;54731;42.600;23.476;2023-09-30T06:51:36;15.51;63.11
67942;SHT31;54731;42.600;23.476;2023-09-30T06:54:04;15.56;63.44
67942;SHT31;54731;42.600;23.476;2023-09-30T06:56:30;15.69;63.33
67942;SHT31;54731;42.600;23.476;2023-09-30T06:58:55;15.70;63.27
67942;SHT31;54731;42.600;23.476;2023-09-30T07:01:20;15.73;62.16
67942;SHT31;54731;42.600;23.476;2023-09-30T07:03:46;15.79;61.26
67942;SHT31;54731;42.600;23.476;2023-09-30T07:06:11;15.83;61.80
67942;SHT31;54731;42.600;23.476;2023-09-30T07:08:36;15.84;61.51
67942;SHT31;54731;42.600;23.476;2023-09-30T07:11:02;15.97;60.09
67942;SHT31;54731;42.600;23.476;2023-09-30T07:13:27;16.02;60.20
67942;SHT31;54731;42.600;23.476;2023-09-30T07:15:52;16.14;58.74
67942;SHT31;54731;42.600;23.476;2023-09-30T07:18:17;16.21;59.70
67942;SHT31;54731;42.600;23.476;2023-09-30T07:20:43;16.28;58.45
67942;SHT31;54731;42.600;23.476;2023-09-30T07:23:08;16.45;57.39
67942;SHT31;54731;42.600;23.476;2023-09-30T07:25:33;16.53;57.50
67942;SHT31;54731;42.600;23.476;2023-09-30T07:27:59;16.59;56.88
67942;SHT31;54731;42.600;23.476;2023-09-30T07:30:26;16.65;57.14
67942;SHT31;54731;42.600;23.476;2023-09-30T07:32:51;16.66;56.84
67942;SHT31;54731;42.600;23.476;2023-09-30T07:35:16;16.75;58.03
67942;SHT31;54731;42.600;23.476;2023-09-30T07:37:42;16.87;58.37
67942;SHT31;54731;42.600;23.476;2023-09-30T07:40:08;16.92;57.76
67942;SHT31;54731;42.600;23.476;2023-09-30T07:42:33;16.96;59.01
67942;SHT31;54731;42.600;23.476;2023-09-30T07:44:59;17.06;57.81
67942;SHT31;54731;42.600;23.476;2023-09-30T07:47:24;17.10;57.83
67942;SHT31;54731;42.600;23.476;2023-09-30T07:49:49;17.13;57.86
67942;SHT31;54731;42.600;23.476;2023-09-30T07:52:15;17.20;57.69
67942;SHT31;54731;42.600;23.476;2023-09-30T07:54:40;17.30;57.29
67942;SHT31;54731;42.600;23.476;2023-09-30T07:57:05;17.43;55.40
67942;SHT31;54731;42.600;23.476;2023-09-30T07:59:31;17.50;53.58
67942;SHT31;54731;42.600;23.476;2023-09-30T08:01:56;17.60;54.59
67942;SHT31;54731;42.600;23.476;2023-09-30T08:04:21;17.66;54.24
67942;SHT31;54731;42.600;23.476;2023-09-30T08:06:46;17.73;53.07
67942;SHT31;54731;42.600;23.476;2023-09-30T08:09:13;17.73;52.52
67942;SHT31;54731;42.600;23.476;2023-09-30T08:11:39;17.78;53.24
67942;SHT31;54731;42.600;23.476;2023-09-30T08:14:04;17.85;51.38
67942;SHT31;54731;42.600;23.476;2023-09-30T08:16:30;17.87;51.55
67942;SHT31;54731;42.600;23.476;2023-09-30T08:18:55;17.94;51.32
67942;SHT31;54731;42.600;23.476;2023-09-30T08:21:20;17.97;52.93
67942;SHT31;54731;42.600;23.476;2023-09-30T08:23:46;18.11;50.76
67942;SHT31;54731;42.600;23.476;2023-09-30T08:26:11;18.16;50.43
67942;SHT31;54731;42.600;23.476;2023-09-30T08:28:36;18.18;50.79
67942;SHT31;54731;42.600;23.476;2023-09-30T08:31:03;18.29;50.14
67942;SHT31;54731;42.600;23.476;2023-09-30T08:33:28;18.36;50.83
67942;SHT31;54731;42.600;23.476;2023-09-30T08:35:54;18.41;49.49
67942;SHT31;54731;42.600;23.476;2023-09-30T08:38:19;18.48;48.77
67942;SHT31;54731;42.600;23.476;2023-09-30T08:40:45;18.52;48.85
67942;SHT31;54731;42.600;23.476;2023-09-30T08:43:11;18.55;48.75
67942;SHT31;54731;42.600;23.476;2023-09-30T08:45:39;18.70;49.00
67942;SHT31;54731;42.600;23.476;2023-09-30T08:48:06;18.79;47.14
67942;SHT31;54731;42.600;23.476;2023-09-30T08:50:33;18.89;46.16
67942;SHT31;54731;42.600;23.476;2023-09-30T08:53:00;19.00;45.24
67942;SHT31;54731;42.600;23.476;2023-09-30T08:55:29;19.06;45.87
67942;SHT31;54731;42.600;23.476;2023-09-30T08:57:57;19.14;45.06
67942;SHT31;54731;42.600;23.476;2023-09-30T09:00:22;19.23;44.69
67942;SHT31;54731;42.600;23.476;2023-09-30T09:02:49;19.32;45.81
67942;SHT31;54731;42.600;23.476;2023-09-30T09:05:15;19.38;46.18
67942;SHT31;54731;42.600;23.476;2023-09-30T09:07:40;19.46;45.26
67942;SHT31;54731;42.600;23.476;2023-09-30T09:10:07;19.55;44.81
67942;SHT31;54731;42.600;23.476;2023-09-30T09:12:35;19.67;45.21
67942;SHT31;54731;42.600;23.476;2023-09-30T09:15:00;19.75;44.45
67942;SHT31;54731;42.600;23.476;2023-09-30T09:17:43;19.82;45.14
67942;SHT31;54731;42.600;23.476;2023-09-30T09:20:10;19.93;44.15
67942;SHT31;54731;42.600;23.476;2023-09-30T09:22:43;20.01;42.91
67942;SHT31;54731;42.600;23.476;2023-09-30T09:25:10;20.04;42.93
67942;SHT31;54731;42.600;23.476;2023-09-30T09:27:36;20.09;44.48
67942;SHT31;54731;42.600;23.476;2023-09-30T09:33:04;20.26;43.20
67942;SHT31;54731;42.600;23.476;2023-09-30T09:35:30;20.33;43.74
67942;SHT31;54731;42.600;23.476;2023-09-30T09:37:56;20.40;45.31
67942;SHT31;54731;42.600;23.476;2023-09-30T09:40:27;20.54;42.70
67942;SHT31;54731;42.600;23.476;2023-09-30T09:42:53;20.69;43.41
67942;SHT31;54731;42.600;23.476;2023-09-30T09:45:19;20.84;42.02
67942;SHT31;54731;42.600;23.476;2023-09-30T09:47:46;20.93;41.52
67942;SHT31;54731;42.600;23.476;2023-09-30T09:50:13;20.98;42.61
67942;SHT31;54731;42.600;23.476;2023-09-30T09:52:39;21.08;41.56
67942;SHT31;54731;42.600;23.476;2023-09-30T09:55:06;21.21;41.27
67942;SHT31;54731;42.600;23.476;2023-09-30T09:57:33;21.25;41.07
67942;SHT31;54731;42.600;23.476;2023-09-30T09:59:59;21.31;41.09
67942;SHT31;54731;42.600;23.476;2023-09-30T10:02:25;21.34;40.76
67942;SHT31;54731;42.600;23.476;2023-09-30T10:04:51;21.47;40.01
67942;SHT31;54731;42.600;23.476;2023-09-30T10:07:26;21.48;39.53
67942;SHT31;54731;42.600;23.476;2023-09-30T10:09:53;21.57;39.67
67942;SHT31;54731;42.600;23.476;2023-09-30T10:12:19;21.62;39.74
67942;SHT31;54731;42.600;23.476;2023-09-30T10:14:45;21.69;39.73
67942;SHT31;54731;42.600;23.476;2023-09-30T10:17:10;21.69;39.17
67942;SHT31;54731;42.600;23.476;2023-09-30T10:19:35;21.81;40.52
67942;SHT31;54731;42.600;23.476;2023-09-30T10:24:41;21.96;38.37
67942;SHT31;54731;42.600;23.476;2023-09-30T10:29:56;22.09;39.99
67942;SHT31;54731;42.600;23.476;2023-09-30T10:32:22;22.24;39.04
67942;SHT31;54731;42.600;23.476;2023-09-30T10:34:48;22.40;37.12
67942;SHT31;54731;42.600;23.476;2023-09-30T10:37:21;22.57;35.79
67942;SHT31;54731;42.600;23.476;2023-09-30T10:39:57;22.78;34.94
67942;SHT31;54731;42.600;23.476;2023-09-30T10:42:48;22.83;35.26
67942;SHT31;54731;42.600;23.476;2023-09-30T10:50:59;23.15;33.62
67942;SHT31;54731;42.600;23.476;2023-09-30T10:53:25;23.22;33.72
67942;SHT31;54731;42.600;23.476;2023-09-30T10:55:58;23.38;33.63
67942;SHT31;54731;42.600;23.476;2023-09-30T10:58:46;23.51;32.62
67942;SHT31;54731;42.600;23.476;2023-09-30T11:01:17;23.61;33.37
67942;SHT31;54731;42.600;23.476;2023-09-30T11:03:43;23.69;33.43
67942;SHT31;54731;42.600;23.476;2023-09-30T11:06:15;23.79;32.62
67942;SHT31;54731;42.600;23.476;2023-09-30T11:08:54;23.79;32.10
67942;SHT31;54731;42.600;23.476;2023-09-30T11:13:59;23.97;33.32
67942;SHT31;54731;42.600;23.476;2023-09-30T11:16:25;24.10;32.26
67942;SHT31;54731;42.600;23.476;2023-09-30T11:18:53;24.21;32.28
67942;SHT31;54731;42.600;23.476;2023-09-30T11:21:19;24.33;32.54
67942;SHT31;54731;42.600;23.476;2023-09-30T11:23:44;24.49;32.50
67942;SHT31;54731;42.600;23.476;2023-09-30T11:26:10;24.53;31.46
67942;SHT31;54731;42.600;23.476;2023-09-30T11:28:43;24.74;31.53
67942;SHT31;54731;42.600;23.476;2023-09-30T11:31:12;25.05;31.58
67942;SHT31;54731;42.600;23.476;2023-09-30T11:33:50;25.26;31.51
67942;SHT31;54731;42.600;23.476;2023-09-30T11:36:16;25.42;30.50
67942;SHT31;54731;42.600;23.476;2023-09-30T11:38:45;25.49;30.68
67942;SHT31;54731;42.600;23.476;2023-09-30T11:41:10;25.75;30.86
67942;SHT31;54731;42.600;23.476;2023-09-30T11:43:36;25.77;29.74
67942;SHT31;54731;42.600;23.476;2023-09-30T11:46:19;26.01;31.33
67942;SHT31;54731;42.600;23.476;2023-09-30T11:48:59;26.17;30.49
67942;SHT31;54731;42.600;23.476;2023-09-30T11:51:25;26.51;30.08
67942;SHT31;54731;42.600;23.476;2023-09-30T11:53:50;26.75;30.61
67942;SHT31;54731;42.600;23.476;2023-09-30T11:56:16;26.98;29.28
67942;SHT31;54731;42.600;23.476;2023-09-30T11:58:41;27.11;29.74
67942;SHT31;54731;42.600;23.476;2023-09-30T12:01:07;27.05;28.70
67942;SHT31;54731;42.600;23.476;2023-09-30T12:03:35;27.15;28.98
67942;SHT31;54731;42.600;23.476;2023-09-30T12:06:00;27.49;29.70
67942;SHT31;54731;42.600;23.476;2023-09-30T12:08:25;27.66;29.17
67942;SHT31;54731;42.600;23.476;2023-09-30T12:10:51;27.62;28.48
67942;SHT31;54731;42.600;23.476;2023-09-30T12:13:16;27.63;28.43
67942;SHT31;54731;42.600;23.476;2023-09-30T12:15:42;27.71;28.62
67942;SHT31;54731;42.600;23.476;2023-09-30T12:18:09;27.82;28.10
67942;SHT31;54731;42.600;23.476;2023-09-30T12:20:34;27.83;28.42
67942;SHT31;54731;42.600;23.476;2023-09-30T12:22:59;27.67;29.02
67942;SHT31;54731;42.600;23.476;2023-09-30T12:25:25;27.67;28.73
67942;SHT31;54731;42.600;23.476;2023-09-30T12:27:50;27.82;29.59
67942;SHT31;54731;42.600;23.476;2023-09-30T12:30:15;28.00;29.14
67942;SHT31;54731;42.600;23.476;2023-09-30T12:32:40;27.89;28.22
67942;SHT31;54731;42.600;23.476;2023-09-30T12:35:06;28.01;28.94
67942;SHT31;54731;42.600;23.476;2023-09-30T12:37:31;28.21;28.48
67942;SHT31;54731;42.600;23.476;2023-09-30T12:39:57;28.14;27.70
67942;SHT31;54731;42.600;23.476;2023-09-30T12:42:22;27.62;28.25
67942;SHT31;54731;42.600;23.476;2023-09-30T12:44:47;27.54;28.08
67942;SHT31;54731;42.600;23.476;2023-09-30T12:47:13;27.63;28.79
67942;SHT31;54731;42.600;23.476;2023-09-30T12:49:38;27.98;28.74
67942;SHT31;54731;42.600;23.476;2023-09-30T12:52:03;28.40;27.65
67942;SHT31;54731;42.600;23.476;2023-09-30T12:54:29;28.38;27.53
67942;SHT31;54731;42.600;23.476;2023-09-30T12:56:54;28.36;28.23
67942;SHT31;54731;42.600;23.476;2023-09-30T12:59:19;28.34;27.85
67942;SHT31;54731;42.600;23.476;2023-09-30T13:01:45;28.36;28.03
67942;SHT31;54731;42.600;23.476;2023-09-30T13:04:10;28.22;27.12
67942;SHT31;54731;42.600;23.476;2023-09-30T13:06:35;28.00;27.43
67942;SHT31;54731;42.600;23.476;2023-09-30T13:09:04;27.73;27.30
67942;SHT31;54731;42.600;23.476;2023-09-30T13:11:29;27.82;28.24
67942;SHT31;54731;42.600;23.476;2023-09-30T13:13:54;27.62;28.01
67942;SHT31;54731;42.600;23.476;2023-09-30T13:16:20;27.87;28.30
67942;SHT31;54731;42.600;23.476;2023-09-30T13:18:45;28.04;27.76
67942;SHT31;54731;42.600;23.476;2023-09-30T13:21:10;28.13;27.70
67942;SHT31;54731;42.600;23.476;2023-09-30T13:23:36;28.11;26.89
67942;SHT31;54731;42.600;23.476;2023-09-30T13:26:01;28.33;27.85
67942;SHT31;54731;42.600;23.476;2023-09-30T13:28:27;28.38;27.72
67942;SHT31;54731;42.600;23.476;2023-09-30T13:30:53;28.49;27.46
67942;SHT31;54731;42.600;23.476;2023-09-30T13:33:18;28.62;27.24
67942;SHT31;54731;42.600;23.476;2023-09-30T13:35:45;28.78;27.30
67942;SHT31;54731;42.600;23.476;2023-09-30T13:38:10;28.69;26.38
67942;SHT31;54731;42.600;23.476;2023-09-30T13:40:36;28.58;27.62
67942;SHT31;54731;42.600;23.476;2023-09-30T13:43:03;28.31;27.02
67942;SHT31;54731;42.600;23.476;2023-09-30T13:45:29;28.33;28.14
67942;SHT31;54731;42.600;23.476;2023-09-30T13:47:55;28.38;26.82
67942;SHT31;54731;42.600;23.476;2023-09-30T13:50:20;28.21;27.65
67942;SHT31;54731;42.600;23.476;2023-09-30T13:52:45;28.40;27.38
67942;SHT31;54731;42.600;23.476;2023-09-30T13:55:11;28.52;27.07
67942;SHT31;54731;42.600;23.476;2023-09-30T13:57:36;28.61;27.08
67942;SHT31;54731;42.600;23.476;2023-09-30T14:00:04;28.59;26.39
67942;SHT31;54731;42.600;23.476;2023-09-30T14:02:32;28.54;27.28
67942;SHT31;54731;42.600;23.476;2023-09-30T14:04:57;28.55;27.37
67942;SHT31;54731;42.600;23.476;2023-09-30T14:07:23;28.48;27.71
67942;SHT31;54731;42.600;23.476;2023-09-30T14:09:48;28.51;27.77
67942;SHT31;54731;42.600;23.476;2023-09-30T14:12:13;28.49;27.04
67942;SHT31;54731;42.600;23.476;2023-09-30T14:14:38;28.55;27.69
67942;SHT31;54731;42.600;23.476;2023-09-30T14:17:04;28.64;27.78
67942;SHT31;54731;42.600;23.476;2023-09-30T14:19:29;28.64;27.31
67942;SHT31;54731;42.600;23.476;2023-09-30T14:21:54;28.59;27.51
67942;SHT31;54731;42.600;23.476;2023-09-30T14:24:20;28.58;27.57
67942;SHT31;54731;42.600;23.476;2023-09-30T14:26:45;28.81;28.55
67942;SHT31;54731;42.600;23.476;2023-09-30T14:29:11;29.01;28.07
67942;SHT31;54731;42.600;23.476;2023-09-30T14:31:36;29.03;27.68
67942;SHT31;54731;42.600;23.476;2023-09-30T14:34:01;28.95;26.69
67942;SHT31;54731;42.600;23.476;2023-09-30T14:36:27;28.95;26.95
67942;SHT31;54731;42.600;23.476;2023-09-30T14:38:52;28.96;28.09
67942;SHT31;54731;42.600;23.476;2023-09-30T14:41:17;28.69;27.70
67942;SHT31;54731;42.600;23.476;2023-09-30T14:43:42;28.68;27.94
67942;SHT31;54731;42.600;23.476;2023-09-30T14:46:08;28.47;27.14
67942;SHT31;54731;42.600;23.476;2023-09-30T14:48:33;28.24;28.40
67942;SHT31;54731;42.600;23.476;2023-09-30T14:50:59;28.00;27.92
67942;SHT31;54731;42.600;23.476;2023-09-30T14:53:25;27.84;28.40
67942;SHT31;54731;42.600;23.476;2023-09-30T14:55:50;27.66;28.34
67942;SHT31;54731;42.600;23.476;2023-09-30T14:58:16;27.15;28.44
67942;SHT31;54731;42.600;23.476;2023-09-30T15:00:41;27.11;28.77
67942;SHT31;54731;42.600;23.476;2023-09-30T15:03:07;27.15;29.54
67942;SHT31;54731;42.600;23.476;2023-09-30T15:05:32;27.25;29.92
67942;SHT31;54731;42.600;23.476;2023-09-30T15:07:57;27.26;29.65
67942;SHT31;54731;42.600;23.476;2023-09-30T15:10:23;27.21;29.22
67942;SHT31;54731;42.600;23.476;2023-09-30T15:12:48;26.84;29.89
67942;SHT31;54731;42.600;23.476;2023-09-30T15:15:13;26.50;29.93
67942;SHT31;54731;42.600;23.476;2023-09-30T15:17:39;26.33;30.14
67942;SHT31;54731;42.600;23.476;2023-09-30T15:20:04;25.93;29.96
67942;SHT31;54731;42.600;23.476;2023-09-30T15:22:31;25.53;30.05
67942;SHT31;54731;42.600;23.476;2023-09-30T15:24:56;25.36;31.07
67942;SHT31;54731;42.600;23.476;2023-09-30T15:27:24;25.22;31.55